Coward, South Carolina
Current Conditions -  °F | °C
As of 12:53 AM on Saturday 25 Oct 2014 (Local Time) from KFLO Reporting Station
Clear Clear  
Wind Chill: 52°   Ceiling: Unl
Heat Index: 52°   Visibility: 10mi
Dew Point: 49°   Wind: 5mph
Humidity: 89%   Direction: 330°NNW
Pressure: 29.99"   Gusts: NA
Location:  33.97°N, 79.75°W
Report Text: KFLO 250453Z AUTO 33004KT 10SM CLR 11/09 A2999 RMK AO2 SLP154 T01110094 402220078
Loading
Personal Weather Stations






























Interactive Weather Map
Tropical Storm Tracking
New forecast layout! Learn more

10-Day Weather Forecast

Advertisements
Track Severe Weather on mobile